createdAt,value
2017-08-16T00:02:15.503Z,75.26
2017-08-16T00:04:42.083Z,75.31
2017-08-16T00:07:09.138Z,75.25
2017-08-16T00:09:35.616Z,75.84
2017-08-16T00:12:02.114Z,76.36
2017-08-16T00:14:28.911Z,76.07
2017-08-16T00:16:55.401Z,75.99
2017-08-16T00:19:21.869Z,75.55
2017-08-16T00:21:48.310Z,75.51
2017-08-16T00:24:14.841Z,76.20
2017-08-16T00:26:41.660Z,76.04
2017-08-16T00:29:08.173Z,76.82
2017-08-16T00:31:34.680Z,76.39
2017-08-16T00:34:01.161Z,76.68
2017-08-16T00:36:27.650Z,77.04
2017-08-16T00:38:54.162Z,77.11
2017-08-16T00:41:20.703Z,77.03
2017-08-16T00:43:47.159Z,77.06
2017-08-16T00:46:13.711Z,77.63
2017-08-16T00:48:40.288Z,77.94
2017-08-16T00:51:06.878Z,77.32
2017-08-16T00:53:33.414Z,77.26
2017-08-16T00:55:59.989Z,77.18
2017-08-16T00:58:26.499Z,77.22
2017-08-16T01:00:52.973Z,76.94
2017-08-16T01:03:19.499Z,77.00
2017-08-16T01:05:45.920Z,76.70
2017-08-16T01:08:12.385Z,77.00
2017-08-16T01:10:38.866Z,77.09
2017-08-16T01:13:05.319Z,76.96
2017-08-16T01:15:31.731Z,76.92
2017-08-16T01:17:58.189Z,76.66
2017-08-16T01:20:24.675Z,76.92
2017-08-16T01:22:51.184Z,76.88
2017-08-16T01:25:17.635Z,76.50
2017-08-16T01:27:44.210Z,76.54
2017-08-16T01:30:10.716Z,76.70
2017-08-16T01:32:37.202Z,77.21
2017-08-16T01:35:03.671Z,76.83
2017-08-16T01:37:30.118Z,76.79
2017-08-16T01:39:56.651Z,76.90
2017-08-16T01:42:23.129Z,76.89
2017-08-16T01:44:49.642Z,76.41
2017-08-16T01:47:16.065Z,76.55
2017-08-16T01:49:42.576Z,77.10
2017-08-16T01:52:09.006Z,77.27
2017-08-16T01:54:35.578Z,76.91
2017-08-16T01:57:02.106Z,76.81
2017-08-16T01:59:28.824Z,76.87
2017-08-16T02:01:55.255Z,76.97
2017-08-16T02:04:21.749Z,77.56
2017-08-16T02:06:48.278Z,77.06
2017-08-16T02:09:14.778Z,76.84
2017-08-16T02:11:41.295Z,76.89
2017-08-16T02:14:07.791Z,77.18
2017-08-16T02:16:34.280Z,76.92
2017-08-16T02:19:01.167Z,77.23
2017-08-16T02:21:27.628Z,77.03
2017-08-16T02:23:54.128Z,76.80
2017-08-16T02:26:20.976Z,76.73
2017-08-16T02:28:47.679Z,76.90
2017-08-16T02:31:14.155Z,76.90
2017-08-16T02:33:40.670Z,76.83
2017-08-16T02:36:07.134Z,76.88
2017-08-16T02:38:33.624Z,76.75
2017-08-16T02:41:00.137Z,76.57
2017-08-16T02:43:26.635Z,76.60
2017-08-16T02:45:53.125Z,76.73
2017-08-16T02:48:19.807Z,76.93
2017-08-16T02:50:46.434Z,76.34
2017-08-16T02:53:12.952Z,76.78
2017-08-16T02:55:39.453Z,76.68
2017-08-16T02:58:06.008Z,76.66
2017-08-16T03:00:32.528Z,76.10
2017-08-16T03:02:59.048Z,75.91
2017-08-16T03:05:25.514Z,76.09
2017-08-16T03:07:52.066Z,76.47
2017-08-16T03:10:18.670Z,76.44
2017-08-16T03:12:45.211Z,76.47
2017-08-16T03:15:11.773Z,76.24
2017-08-16T03:17:38.375Z,76.02
2017-08-16T03:20:04.962Z,76.20
2017-08-16T03:22:31.542Z,76.32
2017-08-16T03:24:58.064Z,76.32
2017-08-16T03:27:24.629Z,76.80
2017-08-16T03:29:51.608Z,77.04
2017-08-16T03:32:18.172Z,76.81
2017-08-16T03:34:44.709Z,76.86
2017-08-16T03:37:11.204Z,76.90
2017-08-16T03:39:37.795Z,76.75
2017-08-16T03:42:04.383Z,76.94
2017-08-16T03:44:30.956Z,77.03
2017-08-16T03:46:57.513Z,76.43
2017-08-16T03:49:24.000Z,76.29
2017-08-16T03:51:50.482Z,76.68
2017-08-16T03:54:17.056Z,76.80
2017-08-16T03:56:43.579Z,76.54
2017-08-16T03:59:10.119Z,76.97
2017-08-16T04:01:36.651Z,76.88
2017-08-16T04:04:03.227Z,76.68
2017-08-16T04:06:29.805Z,76.31
2017-08-16T04:08:56.319Z,76.69
2017-08-16T04:11:22.919Z,76.96
2017-08-16T04:13:49.511Z,76.90
2017-08-16T04:16:16.049Z,77.02
2017-08-16T04:18:42.627Z,77.05
2017-08-16T04:21:09.195Z,76.62
2017-08-16T04:23:35.790Z,76.83
2017-08-16T04:26:02.355Z,76.99
2017-08-16T04:28:28.891Z,77.00
2017-08-16T04:30:55.500Z,76.73
2017-08-16T04:33:22.073Z,76.97
2017-08-16T04:35:49.015Z,77.17
2017-08-16T04:38:15.571Z,77.21
2017-08-16T04:40:42.130Z,77.22
2017-08-16T04:43:08.621Z,77.04
2017-08-16T04:45:35.206Z,77.06
2017-08-16T04:48:01.733Z,76.87
2017-08-16T04:50:28.272Z,76.78
2017-08-16T04:52:54.807Z,76.99
2017-08-16T04:55:21.390Z,77.06
2017-08-16T04:57:47.935Z,76.89
2017-08-16T05:00:14.513Z,76.95
2017-08-16T05:02:41.158Z,76.92
2017-08-16T05:05:08.701Z,77.16
2017-08-16T05:07:35.285Z,77.00
2017-08-16T05:10:01.810Z,76.82
2017-08-16T05:12:28.431Z,76.92
2017-08-16T05:14:55.030Z,77.39
2017-08-16T05:17:21.569Z,77.34
2017-08-16T05:19:48.210Z,77.20
2017-08-16T05:22:14.785Z,77.21
2017-08-16T05:24:41.347Z,77.10
2017-08-16T05:27:07.914Z,77.52
2017-08-16T05:29:35.518Z,77.52
2017-08-16T05:32:02.067Z,77.38
2017-08-16T05:34:41.499Z,76.66
2017-08-16T05:37:07.999Z,78.05
2017-08-16T05:39:35.396Z,78.44
2017-08-16T05:42:01.876Z,77.83
2017-08-16T05:44:28.312Z,77.72
2017-08-16T05:46:54.831Z,79.52
2017-08-16T05:49:21.871Z,79.15
2017-08-16T05:51:48.332Z,78.44
2017-08-16T05:54:14.832Z,77.63
2017-08-16T05:56:41.271Z,77.54
2017-08-16T05:59:07.686Z,77.97
2017-08-16T06:01:34.143Z,77.74
2017-08-16T06:04:00.861Z,77.93
2017-08-16T06:06:28.007Z,77.48
2017-08-16T06:08:54.510Z,77.40
2017-08-16T06:11:21.010Z,77.22
2017-08-16T06:13:47.463Z,77.25
2017-08-16T06:16:13.954Z,77.13
2017-08-16T06:18:40.371Z,77.32
2017-08-16T06:21:06.884Z,77.28
2017-08-16T06:23:33.421Z,77.13
2017-08-16T06:25:59.902Z,76.87
2017-08-16T06:28:26.416Z,76.89
2017-08-16T06:30:52.928Z,77.45
2017-08-16T06:33:19.391Z,76.93
2017-08-16T06:35:46.063Z,76.39
2017-08-16T06:38:12.563Z,76.39
2017-08-16T06:40:39.416Z,76.26
2017-08-16T06:43:06.145Z,75.81
2017-08-16T06:45:33.129Z,75.75
2017-08-16T06:47:59.658Z,75.59
2017-08-16T06:50:26.173Z,75.48
2017-08-16T06:52:52.660Z,75.27
2017-08-16T06:55:19.143Z,75.15
2017-08-16T06:57:47.115Z,74.91
2017-08-16T07:00:13.630Z,75.44
2017-08-16T07:02:40.059Z,75.48
2017-08-16T07:05:06.518Z,75.28
2017-08-16T07:07:33.002Z,74.96
2017-08-16T07:10:01.699Z,74.87
2017-08-16T07:12:34.750Z,74.74
2017-08-16T07:15:04.448Z,74.08
2017-08-16T07:17:30.999Z,73.87
2017-08-16T07:19:57.583Z,73.69
2017-08-16T07:22:24.215Z,73.20
2017-08-16T07:24:50.876Z,73.28
2017-08-16T07:27:17.515Z,73.10
2017-08-16T07:29:50.056Z,73.33
2017-08-16T07:32:16.839Z,72.92
2017-08-16T07:34:43.471Z,73.52
2017-08-16T07:37:10.034Z,73.83
2017-08-16T07:39:37.943Z,73.31
2017-08-16T07:42:11.567Z,73.05
2017-08-16T07:44:43.591Z,71.74
2017-08-16T07:47:10.428Z,72.70
2017-08-16T07:49:43.235Z,72.48
2017-08-16T07:52:09.851Z,71.90
2017-08-16T07:54:36.833Z,71.48
2017-08-16T07:57:10.749Z,70.61
2017-08-16T07:59:37.697Z,70.29
2017-08-16T08:02:06.822Z,70.25
2017-08-16T08:04:40.132Z,70.20
2017-08-16T08:07:07.684Z,70.19
2017-08-16T08:09:36.509Z,70.01
2017-08-16T08:12:03.517Z,70.33
2017-08-16T08:14:32.602Z,70.33
2017-08-16T08:17:00.782Z,70.11
2017-08-16T08:19:31.236Z,70.03
2017-08-16T08:22:00.480Z,70.12
2017-08-16T08:24:28.043Z,69.61
2017-08-16T08:26:56.222Z,67.87
2017-08-16T08:29:24.528Z,67.70
2017-08-16T08:31:51.769Z,67.81
2017-08-16T08:34:19.671Z,68.37
2017-08-16T08:36:47.624Z,69.50
2017-08-16T08:39:14.361Z,69.72
2017-08-16T08:41:45.917Z,69.71
2017-08-16T08:44:12.515Z,69.29
2017-08-16T08:46:39.040Z,69.03
2017-08-16T08:49:05.933Z,69.42
2017-08-16T08:51:33.165Z,68.88
2017-08-16T08:54:08.218Z,68.78
2017-08-16T08:56:40.080Z,69.08
2017-08-16T08:59:06.691Z,67.11
2017-08-16T09:01:33.269Z,65.66
2017-08-16T09:04:01.702Z,67.13
2017-08-16T09:06:28.538Z,67.10
2017-08-16T09:08:55.909Z,66.37
2017-08-16T09:11:22.522Z,66.03
2017-08-16T09:13:51.126Z,65.58
2017-08-16T09:16:23.811Z,65.73
2017-08-16T09:18:50.527Z,65.07
2017-08-16T09:21:22.498Z,66.00
2017-08-16T09:23:51.149Z,65.20
2017-08-16T09:26:18.513Z,62.32
2017-08-16T09:28:45.140Z,60.08
2017-08-16T09:31:11.734Z,61.65
2017-08-16T09:33:38.280Z,61.43
2017-08-16T09:36:04.969Z,59.87
2017-08-16T09:38:31.801Z,58.57
2017-08-16T09:40:58.807Z,58.35
2017-08-16T09:43:26.335Z,59.21
2017-08-16T09:45:52.956Z,55.82
2017-08-16T09:48:24.915Z,56.13
2017-08-16T09:50:51.461Z,56.17
2017-08-16T09:53:18.096Z,56.72
2017-08-16T09:55:44.881Z,55.93
2017-08-16T09:58:12.509Z,56.68
2017-08-16T10:00:39.287Z,57.01
2017-08-16T10:03:05.922Z,57.24
2017-08-16T10:05:32.480Z,57.70
2017-08-16T10:07:59.071Z,57.15
2017-08-16T10:10:25.687Z,56.23
2017-08-16T10:15:26.015Z,57.25
2017-08-16T10:17:52.625Z,58.12
2017-08-16T10:20:19.254Z,57.15
2017-08-16T10:22:45.862Z,56.42
2017-08-16T10:25:12.359Z,56.12
2017-08-16T10:27:38.871Z,56.11
2017-08-16T10:30:05.840Z,55.49
2017-08-16T10:32:32.314Z,55.60
2017-08-16T10:34:58.812Z,55.54
2017-08-16T10:37:25.315Z,54.92
2017-08-16T10:39:51.864Z,54.65
2017-08-16T10:42:18.494Z,53.49
2017-08-16T10:44:45.053Z,52.32
2017-08-16T10:47:11.666Z,53.50
2017-08-16T10:49:38.761Z,53.44
2017-08-16T10:52:05.388Z,51.03
2017-08-16T10:54:32.013Z,51.25
2017-08-16T10:57:02.772Z,50.32
2017-08-16T10:59:34.512Z,48.75
2017-08-16T11:02:01.347Z,49.88
2017-08-16T11:04:33.123Z,48.57
2017-08-16T11:06:59.742Z,49.23
2017-08-16T11:09:26.592Z,48.70
2017-08-16T11:11:53.291Z,48.30
2017-08-16T11:14:19.996Z,48.40
2017-08-16T11:16:52.806Z,49.00
2017-08-16T11:21:51.552Z,45.77
2017-08-16T11:24:22.150Z,46.70
2017-08-16T11:26:48.748Z,46.73
2017-08-16T11:29:15.370Z,47.33
2017-08-16T11:31:42.477Z,48.42
2017-08-16T11:34:09.185Z,47.31
2017-08-16T11:36:36.037Z,48.28
2017-08-16T11:39:02.742Z,43.67
2017-08-16T11:41:30.261Z,44.62
2017-08-16T11:43:57.024Z,43.94
2017-08-16T11:46:23.687Z,44.73
2017-08-16T11:48:50.436Z,43.77
2017-08-16T11:51:17.097Z,44.25
2017-08-16T11:53:43.716Z,45.02
2017-08-16T11:56:10.551Z,44.99
2017-08-16T11:58:37.256Z,45.92
2017-08-16T12:01:03.923Z,45.51
2017-08-16T12:03:31.308Z,46.03
2017-08-16T12:05:58.011Z,44.63
2017-08-16T12:08:24.668Z,45.17
2017-08-16T12:10:51.391Z,45.48
2017-08-16T12:13:20.049Z,43.68
2017-08-16T12:15:50.408Z,43.38
2017-08-16T12:18:17.557Z,42.31
2017-08-16T12:20:47.512Z,42.18
2017-08-16T12:23:18.846Z,42.74
2017-08-16T12:25:50.684Z,43.37
2017-08-16T12:28:17.951Z,42.68
2017-08-16T12:30:44.624Z,42.56
2017-08-16T12:33:12.482Z,43.37
2017-08-16T12:35:39.247Z,42.65
2017-08-16T12:38:06.295Z,42.48
2017-08-16T12:40:44.401Z,43.88
2017-08-16T12:43:12.239Z,42.07
2017-08-16T12:45:38.929Z,41.82
2017-08-16T12:48:05.591Z,42.20
2017-08-16T12:50:32.218Z,42.37
2017-08-16T12:52:58.869Z,43.11
2017-08-16T12:55:25.649Z,44.27
2017-08-16T12:57:58.603Z,41.48
2017-08-16T13:00:31.615Z,41.88
2017-08-16T13:02:58.247Z,42.48
2017-08-16T13:05:25.157Z,40.70
2017-08-16T13:07:51.957Z,40.78
2017-08-16T13:10:18.586Z,40.94
2017-08-16T13:12:45.279Z,39.82
2017-08-16T13:15:11.853Z,41.12
2017-08-16T13:17:38.502Z,41.41
2017-08-16T13:31:00.568Z,40.63
2017-08-16T13:33:39.401Z,40.84
2017-08-16T13:38:52.623Z,41.31
2017-08-16T13:41:24.265Z,42.05
2017-08-16T13:43:50.683Z,41.66
2017-08-16T13:46:17.064Z,43.89
2017-08-16T13:48:43.462Z,44.39
2017-08-16T13:51:09.837Z,44.58
2017-08-16T13:53:36.261Z,43.61
2017-08-16T13:56:02.691Z,43.81
2017-08-16T13:58:29.050Z,43.01
2017-08-16T14:00:55.444Z,43.42
2017-08-16T14:03:21.838Z,42.72
2017-08-16T14:05:48.228Z,42.48
2017-08-16T14:08:14.616Z,44.37
2017-08-16T14:10:40.992Z,43.40
2017-08-16T14:13:07.439Z,43.02
2017-08-16T14:15:33.884Z,43.00
2017-08-16T14:18:00.281Z,42.70
2017-08-16T14:20:26.679Z,43.15
2017-08-16T14:22:53.082Z,42.14
2017-08-16T14:25:19.476Z,43.27
2017-08-16T14:27:45.826Z,43.85
2017-08-16T14:30:12.192Z,44.95
2017-08-16T14:32:38.596Z,44.87
2017-08-16T14:35:04.983Z,44.64
2017-08-16T14:37:31.365Z,44.95
2017-08-16T14:39:57.789Z,44.17
2017-08-16T14:42:24.181Z,45.35
2017-08-16T14:44:50.573Z,44.40
2017-08-16T14:47:17.024Z,44.82
2017-08-16T14:49:43.408Z,43.66
2017-08-16T14:52:09.792Z,42.11
2017-08-16T14:54:36.207Z,42.54
2017-08-16T14:57:02.619Z,42.64
2017-08-16T14:59:29.031Z,44.81
2017-08-16T15:01:55.437Z,43.93
2017-08-16T15:04:21.847Z,41.47
2017-08-16T15:06:48.246Z,42.37
2017-08-16T15:09:14.640Z,43.36
2017-08-16T15:11:41.016Z,42.41
2017-08-16T15:14:07.404Z,42.37
2017-08-16T15:16:34.126Z,44.00
2017-08-16T15:19:00.560Z,44.25
2017-08-16T15:21:27.002Z,45.15
2017-08-16T15:23:53.468Z,44.87
2017-08-16T15:26:19.881Z,45.12
2017-08-16T15:28:46.287Z,46.87
2017-08-16T15:31:12.693Z,46.73
2017-08-16T15:33:39.077Z,45.28
2017-08-16T15:36:05.490Z,45.10
2017-08-16T15:38:31.925Z,44.99
2017-08-16T15:40:58.319Z,43.56
2017-08-16T15:43:24.696Z,43.15
2017-08-16T15:45:51.075Z,45.25
2017-08-16T15:48:17.484Z,45.15
2017-08-16T15:50:43.896Z,45.91
2017-08-16T15:53:10.329Z,44.77
2017-08-16T15:55:36.712Z,44.62
2017-08-16T15:58:03.086Z,43.97
2017-08-16T16:00:29.452Z,46.33
2017-08-16T16:02:55.834Z,44.59
2017-08-16T16:05:22.239Z,44.59
2017-08-16T16:07:48.646Z,44.30
2017-08-16T16:10:15.042Z,43.65
2017-08-16T16:12:41.424Z,44.90
2017-08-16T16:15:07.800Z,44.59
2017-08-16T16:17:34.268Z,44.13
2017-08-16T16:20:02.715Z,43.18
2017-08-16T16:22:29.590Z,45.46
2017-08-16T16:24:56.602Z,46.57
2017-08-16T16:27:23.125Z,46.87
2017-08-16T16:29:49.729Z,47.05
2017-08-16T16:32:16.176Z,47.03
2017-08-16T16:34:42.570Z,47.14
2017-08-16T16:37:08.945Z,48.40
2017-08-16T16:39:35.372Z,48.33
2017-08-16T16:42:01.759Z,48.44
2017-08-16T16:44:28.261Z,49.02
2017-08-16T16:46:54.659Z,49.86
2017-08-16T16:49:21.056Z,49.69
2017-08-16T16:51:47.425Z,50.26
2017-08-16T16:54:13.804Z,50.71
2017-08-16T16:56:40.548Z,50.44
2017-08-16T16:59:07.506Z,50.56
2017-08-16T17:01:34.499Z,51.09
2017-08-16T17:04:00.982Z,51.13
2017-08-16T17:06:27.827Z,51.30
2017-08-16T17:08:54.343Z,50.82
2017-08-16T17:11:20.742Z,50.47
2017-08-16T17:13:47.156Z,50.78
2017-08-16T17:16:13.608Z,50.50
2017-08-16T17:18:40.820Z,50.55
2017-08-16T17:21:07.331Z,50.18
2017-08-16T17:23:33.831Z,50.33
2017-08-16T17:26:00.281Z,50.59
2017-08-16T17:28:27.392Z,50.78
2017-08-16T17:30:54.167Z,51.49
2017-08-16T17:33:20.644Z,51.23
2017-08-16T17:35:47.023Z,51.57
2017-08-16T17:38:13.405Z,52.74
2017-08-16T17:40:40.706Z,53.09
2017-08-16T17:43:07.087Z,53.55
2017-08-16T17:45:33.504Z,53.51
2017-08-16T17:47:59.902Z,52.85
2017-08-16T17:50:26.314Z,52.77
2017-08-16T17:52:59.376Z,52.82
2017-08-16T18:11:41.076Z,53.56
2017-08-16T18:14:07.496Z,53.35
2017-08-16T18:16:33.872Z,53.60
2017-08-16T18:19:00.977Z,53.33
2017-08-16T18:21:29.035Z,53.99
2017-08-16T18:23:55.479Z,53.60
2017-08-16T18:26:22.365Z,54.07
2017-08-16T18:28:48.906Z,54.47
2017-08-16T18:31:15.386Z,54.08
2017-08-16T18:33:41.807Z,54.08
2017-08-16T18:36:08.217Z,55.19
2017-08-16T18:38:34.700Z,55.66
2017-08-16T18:41:01.560Z,55.58
2017-08-16T18:43:27.976Z,55.67
2017-08-16T18:45:55.644Z,55.93
2017-08-16T18:48:22.219Z,55.45
2017-08-16T18:50:49.209Z,56.38
2017-08-16T18:53:15.612Z,56.16
2017-08-16T18:55:42.066Z,56.50
2017-08-16T18:58:08.789Z,56.82
2017-08-16T19:00:35.237Z,57.52
2017-08-16T19:03:01.715Z,57.94
2017-08-16T19:05:28.129Z,58.90
2017-08-16T19:07:54.568Z,57.99
2017-08-16T19:10:21.625Z,57.85
2017-08-16T19:12:48.485Z,57.82
2017-08-16T19:15:14.977Z,58.85
2017-08-16T19:17:41.398Z,59.22
2017-08-16T19:20:08.116Z,59.58
2017-08-16T19:22:34.576Z,59.39
2017-08-16T19:25:01.049Z,59.11
2017-08-16T19:27:27.634Z,59.12
2017-08-16T19:29:55.217Z,59.30
2017-08-16T19:32:21.658Z,59.30
2017-08-16T19:34:48.802Z,60.00
2017-08-16T19:37:15.288Z,59.77
2017-08-16T19:39:41.689Z,59.63
2017-08-16T19:42:08.092Z,59.59
2017-08-16T19:44:34.530Z,59.79
2017-08-16T19:47:00.997Z,60.15
2017-08-16T19:49:27.393Z,60.04
2017-08-16T19:51:53.793Z,60.09
2017-08-16T19:54:20.182Z,59.63
2017-08-16T19:56:46.801Z,61.00
2017-08-16T19:59:13.187Z,60.53
2017-08-16T20:01:39.643Z,60.80
2017-08-16T20:04:06.044Z,61.07
2017-08-16T20:06:32.471Z,61.38
2017-08-16T20:08:58.869Z,61.86
2017-08-16T20:11:25.252Z,62.78
2017-08-16T20:13:51.636Z,63.03
2017-08-16T20:16:18.017Z,62.96
2017-08-16T20:18:44.420Z,63.27
2017-08-16T20:21:10.790Z,63.99
2017-08-16T20:23:37.633Z,64.66
2017-08-16T20:26:07.816Z,64.51
2017-08-16T20:28:34.325Z,64.33
2017-08-16T20:31:03.105Z,63.44
2017-08-16T20:33:29.621Z,62.61
2017-08-16T20:35:57.896Z,62.73
2017-08-16T20:38:25.762Z,62.72
2017-08-16T20:40:52.212Z,62.27
2017-08-16T20:43:20.421Z,62.70
2017-08-16T20:45:47.820Z,63.95
2017-08-16T20:48:14.346Z,63.15
2017-08-16T20:50:40.774Z,63.98
2017-08-16T20:53:08.224Z,64.56
2017-08-16T20:55:35.460Z,64.72
2017-08-16T20:58:01.897Z,65.75
2017-08-16T21:00:28.290Z,66.95
2017-08-16T21:02:54.634Z,65.83
2017-08-16T21:05:21.000Z,66.14
2017-08-16T21:07:47.469Z,66.13
2017-08-16T21:10:13.899Z,67.19
2017-08-16T21:12:41.334Z,67.27
2017-08-16T21:15:08.306Z,68.21
2017-08-16T21:17:34.732Z,68.33
2017-08-16T21:20:01.152Z,67.30
2017-08-16T21:22:27.572Z,66.87
2017-08-16T21:24:54.247Z,66.99
2017-08-16T21:27:20.670Z,67.78
2017-08-16T21:29:47.090Z,67.38
2017-08-16T21:32:13.509Z,68.43
2017-08-16T21:34:39.941Z,68.89
2017-08-16T21:37:06.535Z,68.78
2017-08-16T21:39:32.935Z,68.16
2017-08-16T21:41:59.345Z,69.00
2017-08-16T21:44:25.775Z,69.24
2017-08-16T21:46:52.178Z,68.57
2017-08-16T21:49:18.561Z,69.25
2017-08-16T21:51:44.959Z,67.84
2017-08-16T21:54:11.358Z,68.16
2017-08-16T21:56:37.757Z,69.42
2017-08-16T21:59:04.158Z,69.37
2017-08-16T22:01:30.552Z,68.90
2017-08-16T22:03:56.949Z,68.08
2017-08-16T22:06:23.357Z,68.09
2017-08-16T22:08:50.239Z,67.35
2017-08-16T22:11:16.701Z,67.41
2017-08-16T22:13:43.164Z,68.48
2017-08-16T22:16:09.613Z,69.20
2017-08-16T22:18:36.073Z,68.56
2017-08-16T22:21:02.463Z,68.92
2017-08-16T22:23:28.854Z,69.03
2017-08-16T22:25:55.210Z,69.75
2017-08-16T22:28:21.616Z,70.11
2017-08-16T22:30:48.008Z,69.35
2017-08-16T22:33:14.382Z,69.09
2017-08-16T22:35:40.760Z,68.86
2017-08-16T22:38:07.155Z,69.48
2017-08-16T22:40:33.592Z,69.73
2017-08-16T22:43:00.000Z,70.71
2017-08-16T22:45:26.375Z,70.71
2017-08-16T22:47:52.790Z,70.00
2017-08-16T22:50:19.160Z,70.28
2017-08-16T22:52:45.507Z,70.29
2017-08-16T22:55:11.884Z,69.39
2017-08-16T22:57:38.265Z,69.60
2017-08-16T23:00:04.689Z,69.07
2017-08-16T23:02:31.101Z,69.67
2017-08-16T23:04:57.473Z,70.19
2017-08-16T23:07:23.854Z,69.92
2017-08-16T23:09:50.250Z,70.80
2017-08-16T23:12:16.629Z,70.14
2017-08-16T23:14:43.027Z,69.50
2017-08-16T23:17:09.450Z,70.02
2017-08-16T23:19:35.837Z,69.92
2017-08-16T23:22:02.244Z,70.37
2017-08-16T23:24:28.660Z,69.82
2017-08-16T23:26:55.080Z,69.01
2017-08-16T23:29:21.476Z,69.69
2017-08-16T23:31:47.868Z,70.21
2017-08-16T23:34:14.268Z,70.44
2017-08-16T23:36:45.943Z,70.15
2017-08-16T23:39:12.486Z,70.27
2017-08-16T23:41:45.112Z,70.00
2017-08-16T23:44:11.791Z,69.69
2017-08-16T23:46:40.378Z,69.55
2017-08-16T23:49:07.778Z,70.28
2017-08-16T23:51:39.277Z,69.37
2017-08-16T23:54:10.835Z,70.05
2017-08-16T23:56:38.010Z,70.89
2017-08-16T23:59:04.358Z,70.18
